Strona główna
METAR-TAF:

METAR-TAF

Lotnisko :

Port lotniczy Münster/Osnabrück

Münster-Osnabrück, Niemcy

Szerokość geograficzna: 52-08N, Długość geograficzna: 007-42E, wysokość: 48 m

Aktualna obserwacja pogody

Raport powstał 33 minut temu, godzina 11:20 UTC
Wiatr 3 kt od południowo-południowy wschód, zmienny między wschodnio-południowy wschód i południe
Temperatura 8°C
Wilgotność 87%
Ciśnienie 1005 hPa
Widzialność 10 km lub więcej
Rozproszone chmury na wysokości 4900 ft

METAR: EDDG 161120Z 15003KT 120V180 9999 SCT049 08/06 Q1005 NOSIG

czas: 12:53 (11:53 UTC)

Prognoza

Raport powstał 53 minut temu, godzina 11:00 UTC
Prognoza ważna od 16 godzina 12 UTC do 17 godzina 12 UTC
Wiatr 5 kt od południowo-południowy wschód
Widzialność 10 km lub więcej
Mało chmury na wysokości 3500 ft
Prawdopodobieństwo 30% :
Przejściowo
od 16 godzina 13 UTC do 16 godzina 17 UTC
Przerywane chmury na wysokości 1200 ft

TAF: EDDG 161100Z 1612/1712 15005KT 9999 FEW035 PROB30 TEMPO 1613/1617 BKN012

Obserwacja i prognoza pogody dla ponad 4000 lotnisk (raport METAR i TAF).

Dostępne stacje oznaczono żółtymi i czerwonymi punktami na mapie.

Najedź kursorem aby zobaczyć nazwę stacji.

Kliknij aby zobaczyć obserwacje i prognozy pogody.

Aby zmienić mapę: kliknij na zielony przycisk z czarnym krzyżykiem, aby powiększyć; na zielony przycisk z myślnikiem, aby pomniejszyć; na zielone strzałki, aby przejść do map sąsiednich.


METAR-TAF: